createdAt,value
2019-03-02T00:01:48.925Z,4.10
2019-03-02T00:04:20.110Z,4.16
2019-03-02T00:06:50.705Z,4.17
2019-03-02T00:09:21.092Z,4.18
2019-03-02T00:11:52.999Z,4.20
2019-03-02T00:14:23.465Z,4.17
2019-03-02T00:16:53.802Z,4.19
2019-03-02T00:19:24.541Z,4.19
2019-03-02T00:21:54.923Z,4.17
2019-03-02T00:24:25.312Z,4.08
2019-03-02T00:26:55.922Z,4.03
2019-03-02T00:29:26.560Z,4.11
2019-03-02T00:31:56.838Z,4.09
2019-03-02T00:34:28.784Z,4.25
2019-03-02T00:36:59.425Z,4.34
2019-03-02T00:39:29.917Z,4.36
2019-03-02T00:42:00.368Z,4.44
2019-03-02T00:44:30.672Z,4.46
2019-03-02T00:47:01.373Z,4.48
2019-03-02T00:49:31.921Z,4.43
2019-03-02T00:52:02.302Z,4.44
2019-03-02T00:54:32.850Z,4.43
2019-03-02T00:57:03.116Z,4.46
2019-03-02T00:59:35.821Z,4.48
2019-03-02T01:02:06.558Z,4.45
2019-03-02T01:04:37.427Z,4.49
2019-03-02T01:07:08.372Z,4.59
2019-03-02T01:09:38.588Z,4.55
2019-03-02T01:12:09.257Z,4.47
2019-03-02T01:14:40.233Z,4.59
2019-03-02T01:17:10.622Z,4.60
2019-03-02T01:19:41.241Z,4.72
2019-03-02T01:22:16.547Z,4.66
2019-03-02T01:24:46.764Z,4.75
2019-03-02T01:27:17.220Z,4.71
2019-03-02T01:29:47.850Z,4.78
2019-03-02T01:32:18.093Z,4.88
2019-03-02T01:34:48.395Z,4.95
2019-03-02T01:37:18.708Z,5.01
2019-03-02T01:39:48.988Z,5.02
2019-03-02T01:42:19.275Z,5.06
2019-03-02T01:44:51.722Z,5.03
2019-03-02T01:47:21.782Z,5.05
2019-03-02T01:49:52.275Z,5.06
2019-03-02T01:52:22.651Z,5.03
2019-03-02T01:54:55.795Z,4.98
2019-03-02T01:57:25.604Z,5.12
2019-03-02T01:59:55.832Z,5.23
2019-03-02T02:02:26.139Z,5.25
2019-03-02T02:04:57.482Z,5.28
2019-03-02T02:07:28.302Z,5.26
2019-03-02T02:09:58.560Z,5.34
2019-03-02T02:12:29.663Z,5.43
2019-03-02T02:15:00.264Z,5.49
2019-03-02T02:17:30.609Z,5.51
2019-03-02T02:20:00.903Z,5.46
2019-03-02T02:22:31.125Z,5.52
2019-03-02T02:25:02.048Z,5.48
2019-03-02T02:27:32.287Z,5.51
2019-03-02T02:30:19.017Z,5.50
2019-03-02T02:32:49.149Z,5.47
2019-03-02T02:35:19.793Z,5.48
2019-03-02T02:37:50.219Z,5.49
2019-03-02T02:40:20.465Z,5.49
2019-03-02T02:42:50.799Z,5.48
2019-03-02T02:45:21.626Z,5.51
2019-03-02T02:47:54.421Z,5.52
2019-03-02T02:50:29.584Z,5.50
2019-03-02T02:53:06.674Z,5.53
2019-03-02T02:55:35.975Z,5.58
2019-03-02T02:58:06.708Z,5.57
2019-03-02T03:00:36.957Z,5.65
2019-03-02T03:03:07.184Z,5.68
2019-03-02T03:05:38.239Z,5.75
2019-03-02T03:08:09.902Z,5.77
2019-03-02T03:10:41.891Z,5.80
2019-03-02T03:13:12.193Z,5.84
2019-03-02T03:15:47.657Z,5.93
2019-03-02T03:18:18.113Z,5.96
2019-03-02T03:20:50.406Z,5.93
2019-03-02T03:23:24.786Z,5.92
2019-03-02T03:25:56.976Z,5.89
2019-03-02T03:28:26.126Z,5.86
2019-03-02T03:30:56.545Z,5.88
2019-03-02T03:33:26.837Z,5.87
2019-03-02T03:35:57.732Z,5.76
2019-03-02T03:38:29.637Z,5.72
2019-03-02T03:41:05.303Z,5.74
2019-03-02T03:43:41.444Z,5.77
2019-03-02T03:46:04.925Z,5.78
2019-03-02T03:48:35.322Z,5.73
2019-03-02T03:51:05.721Z,5.67
2019-03-02T03:53:36.299Z,5.66
2019-03-02T03:56:06.539Z,5.61
2019-03-02T03:58:39.945Z,5.55
2019-03-02T04:01:17.028Z,5.55
2019-03-02T04:03:41.108Z,5.60
2019-03-02T04:06:11.417Z,5.64
2019-03-02T04:08:42.331Z,5.65
2019-03-02T04:11:12.669Z,5.63
2019-03-02T04:13:44.858Z,5.60
2019-03-02T04:16:16.270Z,5.60
2019-03-02T04:18:57.237Z,5.60
2019-03-02T04:21:29.798Z,5.63
2019-03-02T04:24:01.554Z,5.60
2019-03-02T04:26:36.530Z,5.63
2019-03-02T04:29:09.048Z,5.61
2019-03-02T04:31:36.786Z,5.55
2019-03-02T04:34:07.297Z,5.51
2019-03-02T04:36:39.066Z,5.48
2019-03-02T04:39:13.360Z,5.44
2019-03-02T04:41:41.734Z,5.41
2019-03-02T04:44:12.892Z,5.39
2019-03-02T04:46:43.271Z,5.38
2019-03-02T04:49:14.697Z,5.36
2019-03-02T04:51:46.360Z,5.29
2019-03-02T04:54:16.562Z,5.29
2019-03-02T04:56:48.671Z,5.26
2019-03-02T04:59:22.025Z,5.19
2019-03-02T05:01:52.265Z,5.15
2019-03-02T05:04:22.488Z,5.12
2019-03-02T05:06:54.583Z,5.08
2019-03-02T05:09:24.772Z,5.07
2019-03-02T05:11:55.532Z,5.08
2019-03-02T05:14:27.470Z,5.10
2019-03-02T05:16:57.758Z,5.12
2019-03-02T05:19:29.180Z,5.12
2019-03-02T05:22:00.580Z,5.15
2019-03-02T05:24:30.928Z,5.13
2019-03-02T05:27:01.650Z,5.12
2019-03-02T05:29:32.251Z,5.12
2019-03-02T05:32:02.582Z,5.11
2019-03-02T05:34:32.837Z,5.12
2019-03-02T05:37:03.912Z,5.15
2019-03-02T05:39:34.267Z,5.16
2019-03-02T05:42:04.504Z,5.17
2019-03-02T05:44:34.945Z,5.17
2019-03-02T05:47:05.443Z,5.18
2019-03-02T05:49:35.766Z,5.17
2019-03-02T05:52:06.051Z,5.18
2019-03-02T05:54:38.674Z,5.15
2019-03-02T05:57:08.505Z,5.17
2019-03-02T05:59:40.229Z,5.20
2019-03-02T06:02:13.875Z,5.19
2019-03-02T06:04:42.487Z,5.19
2019-03-02T06:07:12.747Z,5.25
2019-03-02T06:09:43.057Z,5.24
2019-03-02T06:12:15.499Z,5.31
2019-03-02T06:14:45.886Z,5.35
2019-03-02T06:17:16.146Z,5.38
2019-03-02T06:19:46.354Z,5.38
2019-03-02T06:22:17.644Z,5.34
2019-03-02T06:24:48.539Z,5.33
2019-03-02T06:27:19.083Z,5.34
2019-03-02T06:29:49.783Z,5.33
2019-03-02T06:32:20.005Z,5.33
2019-03-02T06:34:51.836Z,5.33
2019-03-02T06:37:22.694Z,5.33
2019-03-02T06:39:53.086Z,5.38
2019-03-02T06:42:23.306Z,5.44
2019-03-02T06:44:53.570Z,5.36
2019-03-02T06:47:23.811Z,5.48
2019-03-02T06:49:59.141Z,5.61
2019-03-02T06:52:26.961Z,5.70
2019-03-02T06:54:57.187Z,5.77
2019-03-02T06:57:32.161Z,5.76
2019-03-02T07:00:03.980Z,5.78
2019-03-02T07:02:35.152Z,5.77
2019-03-02T07:05:07.524Z,5.72
2019-03-02T07:07:37.795Z,5.78
2019-03-02T07:10:11.913Z,5.84
2019-03-02T07:12:45.582Z,5.90
2019-03-02T07:15:15.716Z,5.79
2019-03-02T07:18:11.578Z,5.79
2019-03-02T07:20:42.492Z,5.86
2019-03-02T07:23:12.797Z,5.89
2019-03-02T07:25:45.628Z,5.89
2019-03-02T07:28:16.920Z,5.94
2019-03-02T07:30:47.238Z,5.98
2019-03-02T07:33:18.142Z,6.02
2019-03-02T07:35:51.797Z,6.02
2019-03-02T07:38:21.585Z,5.94
2019-03-02T07:40:54.257Z,5.93
2019-03-02T07:43:25.172Z,5.92
2019-03-02T07:45:55.607Z,5.88
2019-03-02T07:48:26.513Z,5.83
2019-03-02T07:50:56.708Z,5.88
2019-03-02T07:53:29.067Z,5.94
2019-03-02T07:55:59.511Z,5.97
2019-03-02T07:58:30.013Z,5.99
2019-03-02T08:01:00.538Z,6.01
2019-03-02T08:03:30.887Z,5.96
2019-03-02T08:06:01.475Z,5.92
2019-03-02T08:08:31.732Z,5.89
2019-03-02T08:11:02.535Z,5.91
2019-03-02T08:13:36.250Z,5.96
2019-03-02T08:16:04.667Z,5.94
2019-03-02T08:18:34.948Z,5.94
2019-03-02T08:21:05.198Z,5.88
2019-03-02T08:23:35.444Z,5.89
2019-03-02T08:26:05.695Z,5.87
2019-03-02T08:28:36.004Z,5.88
2019-03-02T08:31:08.947Z,5.91
2019-03-02T08:33:45.943Z,5.92
2019-03-02T08:36:16.891Z,5.96
2019-03-02T08:38:46.066Z,6.02
2019-03-02T08:41:16.924Z,6.06
2019-03-02T08:43:47.319Z,6.11
2019-03-02T08:46:17.676Z,6.14
2019-03-02T08:48:48.410Z,6.18
2019-03-02T08:51:18.764Z,6.25
2019-03-02T08:53:50.254Z,6.32
2019-03-02T08:56:21.723Z,6.41
2019-03-02T08:58:52.130Z,6.50
2019-03-02T09:01:22.436Z,6.57
2019-03-02T09:03:53.022Z,6.57
2019-03-02T09:06:23.437Z,6.54
2019-03-02T09:08:54.031Z,6.49
2019-03-02T09:11:24.437Z,6.51
2019-03-02T09:13:55.617Z,6.56
2019-03-02T09:16:25.996Z,6.55
2019-03-02T09:18:57.929Z,6.54
2019-03-02T09:21:28.572Z,6.53
2019-03-02T09:23:59.036Z,6.49
2019-03-02T09:26:29.321Z,6.46
2019-03-02T09:29:00.083Z,6.47
2019-03-02T09:31:30.647Z,6.48
2019-03-02T09:34:04.188Z,6.48
2019-03-02T09:36:34.575Z,6.51
2019-03-02T09:39:08.511Z,6.65
2019-03-02T09:41:39.263Z,6.85
2019-03-02T09:44:09.928Z,7.08
2019-03-02T09:46:40.540Z,7.08
2019-03-02T09:49:11.719Z,7.04
2019-03-02T09:51:44.717Z,7.08
2019-03-02T09:54:15.678Z,7.08
2019-03-02T09:56:48.682Z,7.06
2019-03-02T09:59:19.182Z,6.99
2019-03-02T10:01:50.155Z,6.99
2019-03-02T10:04:21.014Z,6.94
2019-03-02T10:06:51.747Z,6.92
2019-03-02T10:09:24.929Z,6.96
2019-03-02T10:11:54.415Z,6.98
2019-03-02T10:14:26.767Z,7.00
2019-03-02T10:16:57.288Z,7.01
2019-03-02T10:19:28.880Z,7.03
2019-03-02T10:21:59.739Z,7.04
2019-03-02T10:24:30.169Z,7.12
2019-03-02T10:27:00.363Z,7.17
2019-03-02T10:29:32.287Z,7.17
2019-03-02T10:32:04.441Z,7.10
2019-03-02T10:34:34.838Z,7.05
2019-03-02T10:37:07.286Z,7.08
2019-03-02T10:39:37.020Z,7.19
2019-03-02T10:42:07.549Z,7.34
2019-03-02T10:44:38.721Z,7.39
2019-03-02T10:47:11.505Z,7.42
2019-03-02T10:49:44.627Z,7.39
2019-03-02T10:52:14.495Z,7.36
2019-03-02T10:54:44.981Z,7.44
2019-03-02T10:57:15.250Z,7.47
2019-03-02T10:59:47.789Z,7.53
2019-03-02T11:02:20.142Z,7.55
2019-03-02T11:04:54.369Z,7.47
2019-03-02T11:07:37.077Z,7.33
2019-03-02T11:10:22.326Z,7.28
2019-03-02T11:13:11.220Z,7.23
2019-03-02T11:15:59.150Z,7.14
2019-03-02T11:18:52.551Z,7.19
2019-03-02T11:21:34.557Z,7.11
2019-03-02T11:24:19.925Z,7.09
2019-03-02T11:26:56.757Z,7.07
2019-03-02T11:29:52.688Z,7.12
2019-03-02T11:32:30.959Z,7.25
2019-03-02T11:35:14.971Z,7.30
2019-03-02T11:38:04.703Z,7.33
2019-03-02T11:40:50.762Z,7.39
2019-03-02T11:43:48.542Z,7.41
2019-03-02T11:46:38.464Z,7.46
2019-03-02T11:49:30.357Z,7.46
2019-03-02T11:52:18.072Z,7.34
2019-03-02T11:55:08.137Z,7.40
2019-03-02T11:58:09.260Z,7.39
2019-03-02T12:01:13.431Z,7.34
2019-03-02T12:03:54.978Z,7.44
2019-03-02T12:06:53.302Z,7.60
2019-03-02T12:09:38.317Z,7.62
2019-03-02T12:12:26.060Z,7.71
2019-03-02T12:15:19.731Z,7.79
2019-03-02T12:18:02.485Z,7.98
2019-03-02T12:21:10.556Z,8.11
2019-03-02T12:23:59.771Z,8.28
2019-03-02T12:26:56.866Z,8.41
2019-03-02T12:29:49.719Z,8.41
2019-03-02T12:32:44.279Z,7.91
2019-03-02T12:35:24.106Z,8.02
2019-03-02T12:38:02.936Z,8.08
2019-03-02T12:40:40.935Z,8.08
2019-03-02T12:43:22.387Z,8.08
2019-03-02T12:45:57.744Z,8.11
2019-03-02T12:48:46.464Z,8.08
2019-03-02T12:51:35.207Z,8.04
2019-03-02T12:54:31.963Z,7.95
2019-03-02T12:57:27.682Z,7.86
2019-03-02T13:00:29.311Z,7.69
2019-03-02T13:03:31.093Z,7.51
2019-03-02T13:06:32.126Z,7.41
2019-03-02T13:09:10.527Z,7.40
2019-03-02T13:12:05.688Z,7.43
2019-03-02T13:15:10.378Z,7.56
2019-03-02T13:17:53.327Z,7.63
2019-03-02T13:20:29.975Z,7.56
2019-03-02T13:23:28.379Z,7.53
2019-03-02T13:26:13.775Z,7.52
2019-03-02T13:28:58.037Z,7.47
2019-03-02T13:31:40.015Z,7.56
2019-03-02T13:34:37.829Z,7.63
2019-03-02T13:37:29.731Z,7.74
2019-03-02T13:40:26.342Z,7.85
2019-03-02T13:43:05.588Z,7.96
2019-03-02T13:46:01.975Z,7.95
2019-03-02T13:48:43.921Z,7.81
2019-03-02T13:51:37.527Z,7.78
2019-03-02T13:54:22.401Z,7.73
2019-03-02T13:57:14.810Z,7.66
2019-03-02T14:00:07.747Z,7.73
2019-03-02T14:03:01.779Z,7.70
2019-03-02T14:06:08.996Z,7.71
2019-03-02T14:08:57.554Z,7.79
2019-03-02T14:11:50.187Z,7.81
2019-03-02T14:14:33.408Z,7.87
2019-03-02T14:17:24.353Z,7.91
2019-03-02T14:20:20.802Z,7.86
2019-03-02T14:23:13.885Z,7.92
2019-03-02T14:25:49.674Z,7.94
2019-03-02T14:28:34.871Z,7.88
2019-03-02T14:31:41.758Z,7.94
2019-03-02T14:34:24.874Z,8.03
2019-03-02T14:37:32.494Z,8.03
2019-03-02T14:40:19.840Z,7.93
2019-03-02T14:43:15.765Z,7.94
2019-03-02T14:45:59.156Z,7.93
2019-03-02T14:48:41.916Z,7.96
2019-03-02T14:51:26.012Z,8.00
2019-03-02T14:54:20.793Z,8.12
2019-03-02T14:57:21.029Z,7.98
2019-03-02T15:00:18.737Z,8.05
2019-03-02T15:03:13.785Z,8.05
2019-03-02T15:06:08.629Z,8.26
2019-03-02T15:08:55.570Z,8.32
2019-03-02T15:11:53.870Z,8.29
2019-03-02T15:14:42.506Z,8.18
2019-03-02T15:17:20.590Z,8.21
2019-03-02T15:20:10.305Z,8.16
2019-03-02T15:23:15.814Z,8.12
2019-03-02T15:25:55.439Z,7.98
2019-03-02T15:28:50.810Z,8.14
2019-03-02T15:31:39.253Z,8.17
2019-03-02T15:34:33.916Z,8.14
2019-03-02T15:37:30.360Z,8.09
2019-03-02T15:40:08.822Z,7.99
2019-03-02T15:42:58.502Z,7.96
2019-03-02T15:45:58.763Z,7.95
2019-03-02T15:48:37.268Z,7.96
2019-03-02T15:51:32.845Z,7.93
2019-03-02T15:54:15.867Z,7.95
2019-03-02T15:57:02.779Z,7.89
2019-03-02T15:59:59.064Z,7.81
2019-03-02T16:02:47.153Z,7.78
2019-03-02T16:05:25.533Z,7.74
2019-03-02T16:08:18.085Z,7.81
2019-03-02T16:11:32.140Z,7.77
2019-03-02T16:14:16.084Z,7.75
2019-03-02T16:17:05.321Z,7.68
2019-03-02T16:19:57.655Z,7.71
2019-03-02T16:22:45.596Z,7.65
2019-03-02T16:25:39.853Z,7.64
2019-03-02T16:28:29.722Z,7.58
2019-03-02T16:31:15.785Z,7.61
2019-03-02T16:34:08.427Z,7.64
2019-03-02T16:36:55.431Z,7.63
2019-03-02T16:39:44.609Z,7.63
2019-03-02T16:42:21.595Z,7.62
2019-03-02T16:45:07.472Z,7.65
2019-03-02T16:47:45.015Z,7.63
2019-03-02T16:50:23.166Z,7.61
2019-03-02T16:53:16.032Z,7.67
2019-03-02T16:56:03.565Z,7.70
2019-03-02T16:58:53.067Z,7.68
2019-03-02T17:01:34.385Z,7.66
2019-03-02T17:04:22.438Z,7.52
2019-03-02T17:07:15.060Z,7.49
2019-03-02T17:10:10.654Z,7.32
2019-03-02T17:12:58.999Z,7.34
2019-03-02T17:16:02.653Z,7.35
2019-03-02T17:19:03.549Z,7.38
2019-03-02T17:22:04.733Z,7.31
2019-03-02T17:25:03.227Z,7.21
2019-03-02T17:28:01.890Z,7.24
2019-03-02T17:30:53.700Z,7.31
2019-03-02T17:33:58.189Z,7.21
2019-03-02T17:36:50.461Z,7.18
2019-03-02T17:39:45.548Z,7.16
2019-03-02T17:42:32.872Z,7.13
2019-03-02T17:45:18.936Z,7.11
2019-03-02T17:47:55.764Z,7.12
2019-03-02T17:50:37.662Z,7.13
2019-03-02T17:53:18.996Z,7.12
2019-03-02T17:56:10.761Z,7.13
2019-03-02T17:59:00.285Z,7.14
2019-03-02T18:01:49.272Z,7.09
2019-03-02T18:04:37.739Z,7.10
2019-03-02T18:07:25.981Z,7.11
2019-03-02T18:10:20.905Z,7.23
2019-03-02T18:13:17.379Z,7.27
2019-03-02T18:16:06.571Z,7.16
2019-03-02T18:18:37.438Z,7.07
2019-03-02T18:21:08.048Z,7.02
2019-03-02T18:23:38.640Z,7.00
2019-03-02T18:26:11.071Z,6.97
2019-03-02T18:28:41.102Z,6.94
2019-03-02T18:31:11.636Z,6.93
2019-03-02T18:33:47.739Z,6.88
2019-03-02T18:36:18.936Z,6.87
2019-03-02T18:38:50.377Z,6.83
2019-03-02T18:41:22.838Z,6.80
2019-03-02T18:43:53.472Z,6.78
2019-03-02T18:46:23.641Z,6.75
2019-03-02T18:49:16.515Z,6.74
2019-03-02T18:52:02.754Z,6.75
2019-03-02T18:54:33.726Z,6.72
2019-03-02T18:57:04.361Z,6.83
2019-03-02T18:59:35.406Z,6.86
2019-03-02T19:02:11.527Z,6.79
2019-03-02T19:04:38.588Z,6.78
2019-03-02T19:07:09.261Z,6.80
2019-03-02T19:09:40.030Z,6.87
2019-03-02T19:12:10.486Z,6.93
2019-03-02T19:14:40.681Z,6.94
2019-03-02T19:17:10.984Z,7.00
2019-03-02T19:19:41.371Z,7.07
2019-03-02T19:22:11.668Z,7.10
2019-03-02T19:24:42.219Z,7.08
2019-03-02T19:27:12.842Z,7.08
2019-03-02T19:29:43.275Z,7.06
2019-03-02T19:32:13.807Z,7.06
2019-03-02T19:34:44.289Z,7.02
2019-03-02T19:37:14.708Z,6.98
2019-03-02T19:39:46.140Z,6.99
2019-03-02T19:42:16.923Z,6.97
2019-03-02T19:44:47.251Z,6.99
2019-03-02T19:47:17.622Z,7.00
2019-03-02T19:49:48.460Z,6.94
2019-03-02T19:52:18.981Z,6.92
2019-03-02T19:54:49.597Z,6.88
2019-03-02T19:57:20.278Z,6.88
2019-03-02T19:59:50.633Z,6.82
2019-03-02T20:02:20.924Z,6.71
2019-03-02T20:04:53.760Z,6.64
2019-03-02T20:07:26.185Z,6.60
2019-03-02T20:09:56.799Z,6.54
2019-03-02T20:12:27.190Z,6.52
2019-03-02T20:14:57.903Z,6.48
2019-03-02T20:17:28.163Z,6.48
2019-03-02T20:19:58.581Z,6.51
2019-03-02T20:22:28.783Z,6.53
2019-03-02T20:24:59.178Z,6.53
2019-03-02T20:27:29.575Z,6.54
2019-03-02T20:30:00.330Z,6.55
2019-03-02T20:32:30.957Z,6.53
2019-03-02T20:35:01.240Z,6.51
2019-03-02T20:37:31.682Z,6.54
2019-03-02T20:40:01.977Z,6.50
2019-03-02T20:42:32.226Z,6.49
2019-03-02T20:45:02.453Z,6.44
2019-03-02T20:47:32.738Z,6.42
2019-03-02T20:50:03.325Z,6.40
2019-03-02T20:52:33.794Z,6.41
2019-03-02T20:55:05.108Z,6.52
2019-03-02T20:57:35.370Z,6.43
2019-03-02T21:00:08.600Z,6.40
2019-03-02T21:02:38.882Z,6.34
2019-03-02T21:05:10.489Z,6.30
2019-03-02T21:07:41.144Z,6.29
2019-03-02T21:10:12.791Z,6.26
2019-03-02T21:12:42.983Z,6.28
2019-03-02T21:15:15.932Z,6.27
2019-03-02T21:17:46.259Z,6.25
2019-03-02T21:20:18.458Z,6.20
2019-03-02T21:22:50.853Z,6.18
2019-03-02T21:25:24.426Z,6.15
2019-03-02T21:27:54.725Z,6.16
2019-03-02T21:30:25.210Z,6.18
2019-03-02T21:32:55.496Z,6.20
2019-03-02T21:35:26.532Z,6.19
2019-03-02T21:37:56.851Z,6.21
2019-03-02T21:40:27.161Z,6.25
2019-03-02T21:42:57.802Z,6.25
2019-03-02T21:45:28.087Z,6.25
2019-03-02T21:47:58.418Z,6.26
2019-03-02T21:50:29.408Z,6.25
2019-03-02T21:52:59.875Z,6.21
2019-03-02T21:55:30.976Z,6.23
2019-03-02T21:58:01.261Z,6.25
2019-03-02T22:00:31.828Z,6.24
2019-03-02T22:03:02.095Z,6.26
2019-03-02T22:05:32.348Z,6.27
2019-03-02T22:08:02.840Z,6.28
2019-03-02T22:10:57.597Z,6.29
2019-03-02T22:13:28.058Z,6.31
2019-03-02T22:16:00.581Z,6.27
2019-03-02T22:18:33.395Z,6.28
2019-03-02T22:21:04.016Z,6.29
2019-03-02T22:23:35.118Z,6.32
2019-03-02T22:26:06.153Z,6.34
2019-03-02T22:28:36.665Z,6.35
2019-03-02T22:31:07.378Z,6.35
2019-03-02T22:33:39.161Z,6.36
2019-03-02T22:36:10.640Z,6.35
2019-03-02T22:38:41.005Z,6.34
2019-03-02T22:41:11.357Z,6.34
2019-03-02T22:43:41.847Z,6.33
2019-03-02T22:46:12.115Z,6.35
2019-03-02T22:48:43.403Z,6.40
2019-03-02T22:51:14.219Z,6.43
2019-03-02T22:53:44.593Z,6.55
2019-03-02T22:56:15.019Z,6.59
2019-03-02T22:58:44.771Z,6.68
2019-03-02T23:01:32.765Z,6.71
2019-03-02T23:04:03.097Z,6.81
2019-03-02T23:06:35.770Z,6.92
2019-03-02T23:09:09.596Z,7.00
2019-03-02T23:11:40.044Z,7.05
2019-03-02T23:14:10.745Z,7.09
2019-03-02T23:16:41.073Z,7.13
2019-03-02T23:19:11.345Z,7.15
2019-03-02T23:21:47.669Z,7.22
2019-03-02T23:24:17.877Z,7.29
2019-03-02T23:26:48.917Z,7.37
2019-03-02T23:29:19.930Z,7.43
2019-03-02T23:31:50.728Z,7.51
2019-03-02T23:34:21.161Z,7.57
2019-03-02T23:36:52.215Z,7.62
2019-03-02T23:39:22.608Z,7.65
2019-03-02T23:41:53.103Z,7.68
2019-03-02T23:44:23.445Z,7.71
2019-03-02T23:46:53.753Z,7.72
2019-03-02T23:49:24.050Z,7.78
2019-03-02T23:51:54.747Z,7.79
2019-03-02T23:54:25.984Z,7.82
2019-03-02T23:56:56.667Z,7.88
2019-03-02T23:59:27.255Z,7.94
